Summit Avenue, New Jersey
Current Conditions -  °F | °C
As of 9:51 AM on Monday 22 Dec 2014 (Local Time) from KNYC Reporting Station
Overcast Overcast  
Wind Chill: 32°   Ceiling: 900
Heat Index: 38°   Visibility: 7mi
Dew Point: 33°   Wind: 8mph
Humidity: 83%   Direction: 50°NE
Pressure: 30.34"   Gusts: NA
Location:  40.7693°N, 74.0322°W
Report Text: KNYC 221451Z AUTO 05007KT 7SM OVC009 03/01 A3034 RMK AO2 SLP267 T00330006 50004 $
Loading
Personal Weather Stations






























Interactive Weather Map New forecast layout! Learn more

10-Day Weather Forecast

Advertisements
Track Severe Weather on mobile